createdAt,value
2023-04-22T00:00:13.864Z,993.36
2023-04-22T00:01:13.846Z,993.39
2023-04-22T00:02:13.895Z,993.36
2023-04-22T00:03:14.148Z,993.40
2023-04-22T00:04:14.288Z,993.34
2023-04-22T00:05:16.463Z,993.35
2023-04-22T00:06:13.774Z,993.35
2023-04-22T00:07:13.792Z,993.32
2023-04-22T00:08:13.757Z,993.32
2023-04-22T00:09:13.749Z,993.29
2023-04-22T00:10:13.781Z,993.32
2023-04-22T00:11:13.735Z,993.24
2023-04-22T00:12:13.713Z,993.25
2023-04-22T00:13:13.704Z,993.24
2023-04-22T00:14:13.690Z,993.24
2023-04-22T00:15:13.679Z,993.23
2023-04-22T00:16:13.773Z,993.24
2023-04-22T00:17:13.664Z,993.26
2023-04-22T00:18:13.756Z,993.22
2023-04-22T00:19:13.639Z,993.24
2023-04-22T00:20:13.651Z,993.23
2023-04-22T00:21:13.618Z,993.25
2023-04-22T00:22:13.705Z,993.26
2023-04-22T00:23:13.609Z,993.25
2023-04-22T00:24:13.580Z,993.27
2023-04-22T00:25:13.595Z,993.24
2023-04-22T00:26:13.558Z,993.27
2023-04-22T00:27:13.556Z,993.22
2023-04-22T00:28:13.569Z,993.24
2023-04-22T00:29:13.529Z,993.25
2023-04-22T00:30:13.548Z,993.27
2023-04-22T00:31:13.554Z,993.24
2023-04-22T00:32:13.528Z,993.29
2023-04-22T00:33:13.526Z,993.27
2023-04-22T00:34:13.502Z,993.29
2023-04-22T00:35:13.477Z,993.28
2023-04-22T00:36:13.540Z,993.23
2023-04-22T00:37:13.454Z,993.25
2023-04-22T00:38:13.437Z,993.27
2023-04-22T00:39:13.408Z,993.31
2023-04-22T00:40:13.419Z,993.35
2023-04-22T00:41:13.414Z,993.33
2023-04-22T00:42:13.425Z,993.28
2023-04-22T00:43:13.387Z,993.33
2023-04-22T00:44:13.369Z,993.31
2023-04-22T00:45:13.347Z,993.27
2023-04-22T00:46:13.385Z,993.34
2023-04-22T00:47:13.380Z,993.32
2023-04-22T00:48:13.382Z,993.34
2023-04-22T00:49:13.299Z,993.33
2023-04-22T00:50:13.285Z,993.36
2023-04-22T00:51:13.345Z,993.37
2023-04-22T00:52:13.311Z,993.37
2023-04-22T00:53:13.278Z,993.34
2023-04-22T00:54:13.268Z,993.36
2023-04-22T00:55:13.250Z,993.41
2023-04-22T00:56:13.244Z,993.36
2023-04-22T00:57:13.218Z,993.37
2023-04-22T00:58:13.200Z,993.37
2023-04-22T00:59:13.259Z,993.34
2023-04-22T01:00:13.203Z,993.38
2023-04-22T01:01:13.221Z,993.42
2023-04-22T01:02:13.232Z,993.39
2023-04-22T01:03:13.318Z,993.38
2023-04-22T01:04:13.285Z,993.38
2023-04-22T01:05:13.148Z,993.40
2023-04-22T01:06:13.144Z,993.34
2023-04-22T01:07:13.112Z,993.36
2023-04-22T01:08:13.149Z,993.36
2023-04-22T01:09:13.108Z,993.34
2023-04-22T01:10:13.070Z,993.31
2023-04-22T01:11:13.090Z,993.34
2023-04-22T01:12:13.049Z,993.33
2023-04-22T01:13:13.041Z,993.32
2023-04-22T01:14:13.088Z,993.31
2023-04-22T01:15:13.047Z,993.31
2023-04-22T01:16:13.056Z,993.27
2023-04-22T01:17:12.992Z,993.26
2023-04-22T01:18:12.991Z,993.30
2023-04-22T01:19:13.001Z,993.30
2023-04-22T01:20:12.971Z,993.26
2023-04-22T01:21:12.984Z,993.30
2023-04-22T01:22:12.976Z,993.31
2023-04-22T01:23:12.934Z,993.28
2023-04-22T01:24:12.954Z,993.26
2023-04-22T01:25:12.918Z,993.24
2023-04-22T01:26:12.902Z,993.28
2023-04-22T01:27:12.924Z,993.30
2023-04-22T01:28:12.878Z,993.26
2023-04-22T01:29:12.877Z,993.25
2023-04-22T01:30:12.884Z,993.28
2023-04-22T01:31:12.878Z,993.23
2023-04-22T01:32:12.881Z,993.28
2023-04-22T01:33:12.883Z,993.31
2023-04-22T01:34:12.886Z,993.27
2023-04-22T01:35:12.799Z,993.31
2023-04-22T01:36:13.303Z,993.23
2023-04-22T01:37:12.781Z,993.23
2023-04-22T01:38:12.796Z,993.22
2023-04-22T01:39:12.764Z,993.22
2023-04-22T01:40:12.793Z,993.25
2023-04-22T01:41:12.739Z,993.28
2023-04-22T01:42:12.719Z,993.32
2023-04-22T01:43:12.739Z,993.29
2023-04-22T01:44:12.704Z,993.29
2023-04-22T01:45:12.707Z,993.25
2023-04-22T01:46:12.746Z,993.20
2023-04-22T01:47:12.663Z,993.21
2023-04-22T01:48:12.728Z,993.19
2023-04-22T01:49:12.650Z,993.14
2023-04-22T01:50:12.642Z,993.09
2023-04-22T01:51:12.623Z,993.09
2023-04-22T01:52:12.688Z,993.11
2023-04-22T01:53:12.627Z,993.07
2023-04-22T01:54:12.648Z,993.10
2023-04-22T01:55:12.582Z,993.12
2023-04-22T01:56:12.596Z,993.13
2023-04-22T01:57:12.555Z,993.16
2023-04-22T01:58:12.563Z,993.15
2023-04-22T01:59:12.539Z,993.14
2023-04-22T02:00:12.548Z,993.16
2023-04-22T02:01:12.527Z,993.11
2023-04-22T02:02:12.595Z,993.10
2023-04-22T02:03:12.611Z,993.07
2023-04-22T02:04:12.486Z,993.10
2023-04-22T02:05:12.532Z,993.10
2023-04-22T02:06:12.502Z,993.03
2023-04-22T02:07:12.456Z,993.07
2023-04-22T02:08:12.441Z,993.08
2023-04-22T02:09:12.425Z,993.08
2023-04-22T02:10:12.443Z,993.06
2023-04-22T02:11:12.403Z,993.06
2023-04-22T02:12:12.430Z,993.09
2023-04-22T02:13:12.402Z,993.05
2023-04-22T02:14:12.373Z,993.01
2023-04-22T02:15:12.356Z,993.01
2023-04-22T02:16:12.420Z,992.97
2023-04-22T02:17:12.334Z,992.98
2023-04-22T02:18:12.369Z,992.95
2023-04-22T02:19:12.321Z,992.96
2023-04-22T02:20:12.377Z,992.93
2023-04-22T02:21:12.292Z,992.92
2023-04-22T02:22:12.288Z,992.90
2023-04-22T02:23:12.286Z,992.96
2023-04-22T02:24:12.264Z,992.90
2023-04-22T02:25:12.302Z,992.98
2023-04-22T02:26:12.243Z,993.00
2023-04-22T02:27:12.230Z,992.97
2023-04-22T02:28:12.251Z,993.02
2023-04-22T02:29:12.210Z,993.00
2023-04-22T02:30:12.217Z,992.99
2023-04-22T02:31:12.228Z,992.99
2023-04-22T02:32:12.184Z,993.01
2023-04-22T02:33:12.186Z,992.99
2023-04-22T02:34:12.172Z,993.00
2023-04-22T02:35:12.156Z,992.98
2023-04-22T02:36:12.151Z,993.00
2023-04-22T02:37:12.130Z,993.07
2023-04-22T02:38:12.135Z,993.00
2023-04-22T02:39:12.121Z,993.04
2023-04-22T02:40:12.150Z,992.99
2023-04-22T02:41:12.095Z,992.98
2023-04-22T02:42:12.067Z,993.01
2023-04-22T02:43:12.072Z,993.04
2023-04-22T02:44:12.056Z,993.03
2023-04-22T02:45:12.090Z,993.02
2023-04-22T02:46:12.093Z,993.02
2023-04-22T02:47:12.009Z,993.02
2023-04-22T02:48:12.098Z,992.99
2023-04-22T02:49:12.015Z,992.97
2023-04-22T02:50:11.993Z,992.94
2023-04-22T02:51:11.993Z,992.94
2023-04-22T02:52:11.963Z,993.01
2023-04-22T02:53:11.957Z,992.93
2023-04-22T02:54:11.950Z,992.91
2023-04-22T02:55:11.921Z,992.88
2023-04-22T02:56:11.922Z,992.90
2023-04-22T02:57:11.906Z,992.86
2023-04-22T02:58:11.929Z,992.87
2023-04-22T02:59:11.914Z,992.89
2023-04-22T03:00:11.884Z,992.86
2023-04-22T03:01:11.931Z,992.88
2023-04-22T03:02:11.954Z,992.91
2023-04-22T03:03:11.940Z,992.87
2023-04-22T03:04:11.930Z,992.93
2023-04-22T03:05:11.877Z,992.87
2023-04-22T03:06:11.804Z,992.90
2023-04-22T03:07:11.833Z,992.92
2023-04-22T03:08:11.777Z,992.85
2023-04-22T03:09:11.789Z,992.89
2023-04-22T03:10:11.793Z,992.93
2023-04-22T03:11:11.737Z,992.92
2023-04-22T03:12:11.724Z,992.85
2023-04-22T03:13:11.739Z,992.82
2023-04-22T03:14:11.711Z,992.87
2023-04-22T03:15:11.701Z,992.84
2023-04-22T03:16:11.772Z,992.88
2023-04-22T03:17:11.685Z,992.84
2023-04-22T03:18:11.664Z,992.85
2023-04-22T03:19:11.701Z,992.90
2023-04-22T03:20:11.674Z,992.85
2023-04-22T03:21:11.645Z,992.83
2023-04-22T03:22:11.630Z,992.82
2023-04-22T03:23:11.627Z,992.84
2023-04-22T03:24:11.597Z,992.85
2023-04-22T03:25:11.605Z,992.89
2023-04-22T03:26:11.592Z,992.83
2023-04-22T03:27:11.568Z,992.85
2023-04-22T03:28:11.572Z,992.87
2023-04-22T03:29:11.548Z,992.88
2023-04-22T03:30:11.540Z,992.87
2023-04-22T03:31:11.558Z,992.86
2023-04-22T03:32:11.630Z,992.87
2023-04-22T03:33:11.593Z,992.87
2023-04-22T03:34:11.491Z,992.87
2023-04-22T03:35:19.089Z,992.85
2023-04-22T03:36:11.473Z,992.90
2023-04-22T03:37:11.503Z,992.91
2023-04-22T03:38:11.464Z,992.90
2023-04-22T03:39:11.432Z,992.92
2023-04-22T03:40:13.457Z,992.92
2023-04-22T03:41:11.464Z,992.89
2023-04-22T03:42:11.404Z,992.82
2023-04-22T03:43:11.403Z,992.88
2023-04-22T03:44:11.399Z,992.89
2023-04-22T03:45:11.408Z,992.84
2023-04-22T03:46:11.455Z,992.83
2023-04-22T03:47:11.352Z,992.80
2023-04-22T03:48:11.361Z,992.81
2023-04-22T03:49:11.348Z,992.78
2023-04-22T03:50:11.333Z,992.78
2023-04-22T03:51:11.308Z,992.77
2023-04-22T03:52:11.290Z,992.76
2023-04-22T03:53:11.286Z,992.70
2023-04-22T03:54:11.308Z,992.74
2023-04-22T03:55:11.289Z,992.73
2023-04-22T03:56:11.243Z,992.75
2023-04-22T03:57:11.240Z,992.75
2023-04-22T03:58:11.225Z,992.68
2023-04-22T03:59:11.225Z,992.61
2023-04-22T04:00:11.221Z,992.56
2023-04-22T04:01:11.224Z,992.56
2023-04-22T04:02:11.249Z,992.58
2023-04-22T04:03:11.449Z,992.55
2023-04-22T04:04:11.351Z,992.55
2023-04-22T04:05:11.361Z,992.51
2023-04-22T04:06:11.135Z,992.49
2023-04-22T04:07:11.142Z,992.48
2023-04-22T04:08:11.209Z,992.49
2023-04-22T04:09:11.123Z,992.44
2023-04-22T04:10:11.101Z,992.48
2023-04-22T04:11:11.103Z,992.53
2023-04-22T04:12:11.095Z,992.52
2023-04-22T04:13:11.087Z,992.49
2023-04-22T04:14:11.093Z,992.46
2023-04-22T04:15:11.049Z,992.49
2023-04-22T04:16:11.065Z,992.46
2023-04-22T04:17:11.021Z,992.50
2023-04-22T04:18:11.006Z,992.48
2023-04-22T04:19:11.021Z,992.48
2023-04-22T04:20:11.012Z,992.43
2023-04-22T04:21:10.986Z,992.45
2023-04-22T04:22:11.015Z,992.42
2023-04-22T04:23:10.956Z,992.38
2023-04-22T04:24:11.026Z,992.40
2023-04-22T04:25:10.947Z,992.37
2023-04-22T04:26:10.931Z,992.37
2023-04-22T04:27:10.938Z,992.38
2023-04-22T04:28:10.904Z,992.38
2023-04-22T04:29:10.911Z,992.40
2023-04-22T04:30:10.891Z,992.42
2023-04-22T04:31:10.929Z,992.41
2023-04-22T04:32:10.871Z,992.41
2023-04-22T04:33:10.921Z,992.42
2023-04-22T04:34:10.849Z,992.41
2023-04-22T04:35:10.844Z,992.39
2023-04-22T04:36:10.832Z,992.38
2023-04-22T04:37:10.820Z,992.38
2023-04-22T04:38:10.782Z,992.36
2023-04-22T04:39:10.800Z,992.36
2023-04-22T04:40:10.766Z,992.31
2023-04-22T04:41:10.817Z,992.27
2023-04-22T04:42:10.742Z,992.32
2023-04-22T04:43:10.759Z,992.38
2023-04-22T04:44:10.738Z,992.34
2023-04-22T04:45:10.762Z,992.39
2023-04-22T04:46:10.744Z,992.32
2023-04-22T04:47:10.704Z,992.33
2023-04-22T04:48:10.729Z,992.35
2023-04-22T04:49:10.707Z,992.39
2023-04-22T04:50:10.657Z,992.34
2023-04-22T04:51:10.646Z,992.37
2023-04-22T04:52:10.646Z,992.39
2023-04-22T04:53:10.645Z,992.41
2023-04-22T04:54:10.622Z,992.44
2023-04-22T04:55:10.641Z,992.46
2023-04-22T04:56:10.583Z,992.44
2023-04-22T04:57:10.574Z,992.42
2023-04-22T04:58:10.567Z,992.38
2023-04-22T04:59:10.570Z,992.41
2023-04-22T05:00:10.576Z,992.39
2023-04-22T05:01:10.575Z,992.42
2023-04-22T05:02:10.615Z,992.40
2023-04-22T05:03:10.670Z,992.39
2023-04-22T05:04:10.617Z,992.41
2023-04-22T05:05:10.490Z,992.41
2023-04-22T05:06:10.479Z,992.38
2023-04-22T05:07:10.485Z,992.42
2023-04-22T05:08:10.479Z,992.49
2023-04-22T05:09:10.466Z,992.44
2023-04-22T05:10:10.532Z,992.47
2023-04-22T05:11:10.425Z,992.45
2023-04-22T05:12:10.415Z,992.43
2023-04-22T05:13:10.402Z,992.41
2023-04-22T05:14:10.425Z,992.40
2023-04-22T05:15:10.396Z,992.40
2023-04-22T05:16:10.456Z,992.46
2023-04-22T05:17:10.381Z,992.44
2023-04-22T05:18:10.430Z,992.42
2023-04-22T05:19:10.345Z,992.43
2023-04-22T05:20:10.358Z,992.49
2023-04-22T05:21:10.339Z,992.50
2023-04-22T05:22:10.308Z,992.50
2023-04-22T05:23:10.298Z,992.46
2023-04-22T05:24:10.302Z,992.54
2023-04-22T05:25:10.286Z,992.43
2023-04-22T05:26:10.290Z,992.41
2023-04-22T05:27:10.255Z,992.44
2023-04-22T05:28:10.241Z,992.43
2023-04-22T05:29:10.254Z,992.47
2023-04-22T05:30:10.251Z,992.49
2023-04-22T05:31:10.231Z,992.46
2023-04-22T05:32:10.309Z,992.50
2023-04-22T05:33:10.231Z,992.45
2023-04-22T05:34:10.180Z,992.49
2023-04-22T05:35:10.200Z,992.49
2023-04-22T05:36:10.166Z,992.50
2023-04-22T05:37:10.148Z,992.43
2023-04-22T05:38:10.156Z,992.45
2023-04-22T05:39:10.142Z,992.43
2023-04-22T05:40:10.121Z,992.47
2023-04-22T05:41:10.109Z,992.48
2023-04-22T05:42:10.086Z,992.52
2023-04-22T05:43:10.097Z,992.45
2023-04-22T05:44:10.086Z,992.51
2023-04-22T05:45:10.068Z,992.48
2023-04-22T05:46:10.168Z,992.45
2023-04-22T05:47:10.072Z,992.44
2023-04-22T05:48:10.059Z,992.41
2023-04-22T05:49:10.025Z,992.41
2023-04-22T05:50:10.048Z,992.46
2023-04-22T05:51:10.012Z,992.41
2023-04-22T05:52:09.984Z,992.41
2023-04-22T05:53:09.976Z,992.43
2023-04-22T05:54:09.959Z,992.42
2023-04-22T05:55:09.947Z,992.39
2023-04-22T05:56:09.949Z,992.42
2023-04-22T05:57:09.933Z,992.43
2023-04-22T05:58:09.917Z,992.37
2023-04-22T05:59:09.918Z,992.36
2023-04-22T06:00:09.890Z,992.40
2023-04-22T06:01:09.884Z,992.36
2023-04-22T06:02:09.985Z,992.38
2023-04-22T06:03:09.985Z,992.39
2023-04-22T06:04:10.068Z,992.30
2023-04-22T06:05:10.022Z,992.31
2023-04-22T06:06:09.823Z,992.32
2023-04-22T06:07:09.841Z,992.31
2023-04-22T06:08:09.831Z,992.34
2023-04-22T06:09:09.795Z,992.33
2023-04-22T06:10:09.783Z,992.30
2023-04-22T06:11:09.773Z,992.31
2023-04-22T06:12:09.769Z,992.27
2023-04-22T06:13:09.758Z,992.32
2023-04-22T06:14:09.794Z,992.28
2023-04-22T06:15:09.729Z,992.32
2023-04-22T06:16:09.727Z,992.26
2023-04-22T06:17:09.745Z,992.26
2023-04-22T06:18:09.757Z,992.31
2023-04-22T06:19:10.393Z,992.31
2023-04-22T06:20:09.710Z,992.32
2023-04-22T06:21:09.696Z,992.30
2023-04-22T06:22:09.655Z,992.32
2023-04-22T06:23:09.651Z,992.34
2023-04-22T06:24:09.632Z,992.37
2023-04-22T06:25:09.651Z,992.31
2023-04-22T06:26:09.609Z,992.34
2023-04-22T06:27:09.622Z,992.30
2023-04-22T06:28:09.593Z,992.24
2023-04-22T06:29:09.606Z,992.36
2023-04-22T06:30:09.571Z,992.39
2023-04-22T06:31:09.627Z,992.36
2023-04-22T06:32:09.541Z,992.36
2023-04-22T06:33:09.570Z,992.38
2023-04-22T06:34:09.545Z,992.40
2023-04-22T06:35:09.519Z,992.42
2023-04-22T06:36:09.601Z,992.34
2023-04-22T06:37:09.487Z,992.40
2023-04-22T06:38:09.479Z,992.42
2023-04-22T06:39:09.484Z,992.41
2023-04-22T06:40:09.453Z,992.44
2023-04-22T06:41:09.443Z,992.41
2023-04-22T06:42:09.450Z,992.37
2023-04-22T06:43:09.446Z,992.36
2023-04-22T06:44:09.421Z,992.43
2023-04-22T06:45:09.408Z,992.28
2023-04-22T06:46:09.423Z,992.30
2023-04-22T06:47:09.386Z,992.29
2023-04-22T06:48:09.384Z,992.24
2023-04-22T06:49:09.359Z,992.25
2023-04-22T06:50:09.372Z,992.23
2023-04-22T06:51:09.341Z,992.28
2023-04-22T06:52:09.334Z,992.24
2023-04-22T06:53:09.309Z,992.26
2023-04-22T06:54:09.301Z,992.31
2023-04-22T06:55:09.310Z,992.28
2023-04-22T06:56:09.291Z,992.35
2023-04-22T06:57:09.263Z,992.29
2023-04-22T06:58:09.255Z,992.30
2023-04-22T06:59:09.242Z,992.28
2023-04-22T07:00:09.254Z,992.28
2023-04-22T07:01:09.253Z,992.32
2023-04-22T07:02:09.365Z,992.31
2023-04-22T07:03:09.348Z,992.30
2023-04-22T07:04:09.304Z,992.27
2023-04-22T07:05:09.195Z,992.29
2023-04-22T07:06:09.189Z,992.27
2023-04-22T07:07:09.247Z,992.22
2023-04-22T07:08:09.317Z,992.23
2023-04-22T07:09:09.172Z,992.26
2023-04-22T07:10:09.695Z,992.24
2023-04-22T07:11:09.213Z,992.27
2023-04-22T07:12:09.208Z,992.22
2023-04-22T07:13:09.114Z,992.19
2023-04-22T07:14:09.201Z,992.21
2023-04-22T07:15:09.081Z,992.19
2023-04-22T07:16:09.193Z,992.21
2023-04-22T07:17:09.042Z,992.20
2023-04-22T07:18:09.037Z,992.18
2023-04-22T07:19:09.033Z,992.15
2023-04-22T07:20:09.035Z,992.19
2023-04-22T07:21:09.002Z,992.20
2023-04-22T07:22:09.023Z,992.12
2023-04-22T07:23:08.986Z,992.19
2023-04-22T07:24:08.970Z,992.14
2023-04-22T07:25:09.695Z,992.11
2023-04-22T07:26:08.960Z,992.21
2023-04-22T07:27:08.946Z,992.18
2023-04-22T07:28:08.943Z,992.11
2023-04-22T07:29:08.909Z,992.15
2023-04-22T07:30:08.928Z,992.14
2023-04-22T07:31:08.895Z,992.07
2023-04-22T07:32:08.943Z,992.16
2023-04-22T07:33:08.867Z,992.18
2023-04-22T07:34:08.859Z,992.01
2023-04-22T07:35:08.854Z,992.02
2023-04-22T07:36:08.849Z,991.96
2023-04-22T07:37:08.846Z,992.03
2023-04-22T07:38:09.831Z,992.06
2023-04-22T07:39:09.704Z,992.08
2023-04-22T07:40:08.837Z,992.08
2023-04-22T07:41:09.731Z,992.02
2023-04-22T07:42:09.688Z,991.98
2023-04-22T07:43:08.763Z,992.01
2023-04-22T07:44:08.750Z,991.97
2023-04-22T07:45:08.766Z,991.96
2023-04-22T07:46:08.793Z,991.96
2023-04-22T07:47:08.749Z,991.98
2023-04-22T07:48:08.714Z,991.95
2023-04-22T07:49:08.710Z,992.00
2023-04-22T07:50:08.678Z,992.03
2023-04-22T07:51:08.680Z,991.95
2023-04-22T07:52:08.656Z,991.96
2023-04-22T07:53:08.643Z,991.90
2023-04-22T07:54:08.723Z,991.86
2023-04-22T07:55:08.624Z,991.83
2023-04-22T07:56:08.666Z,991.93
2023-04-22T07:57:08.599Z,991.88
2023-04-22T07:58:08.597Z,991.87
2023-04-22T07:59:08.583Z,991.93
2023-04-22T08:00:08.582Z,991.88
2023-04-22T08:01:08.589Z,991.90
2023-04-22T08:02:08.758Z,991.85
2023-04-22T08:03:08.828Z,991.90
2023-04-22T08:04:09.506Z,991.86
2023-04-22T08:05:08.608Z,991.90
2023-04-22T08:06:08.510Z,991.88
2023-04-22T08:07:26.905Z,991.80
2023-04-22T08:08:09.514Z,991.78
2023-04-22T08:09:08.471Z,991.77
2023-04-22T08:10:08.467Z,991.78
2023-04-22T08:11:08.483Z,991.78
2023-04-22T08:12:08.457Z,991.79
2023-04-22T08:13:08.426Z,991.75
2023-04-22T08:14:08.448Z,991.74
2023-04-22T08:15:08.422Z,991.75
2023-04-22T08:16:08.485Z,991.69
2023-04-22T08:17:08.414Z,991.74
2023-04-22T08:18:08.471Z,991.73
2023-04-22T08:19:08.393Z,991.78
2023-04-22T08:20:08.400Z,991.68
2023-04-22T08:21:08.348Z,991.74
2023-04-22T08:22:08.337Z,991.76
2023-04-22T08:23:08.344Z,991.71
2023-04-22T08:24:08.322Z,991.74
2023-04-22T08:25:08.336Z,991.72
2023-04-22T08:26:08.308Z,991.71
2023-04-22T08:27:08.288Z,991.70
2023-04-22T08:28:08.282Z,991.76
2023-04-22T08:29:08.285Z,991.77
2023-04-22T08:30:08.287Z,991.77
2023-04-22T08:31:08.269Z,991.77
2023-04-22T08:32:08.260Z,991.75
2023-04-22T08:33:08.224Z,991.79
2023-04-22T08:34:08.230Z,991.70
2023-04-22T08:35:08.199Z,991.72
2023-04-22T08:36:08.215Z,991.76
2023-04-22T08:37:08.223Z,991.75
2023-04-22T08:38:08.177Z,991.70
2023-04-22T08:39:08.156Z,991.70
2023-04-22T08:40:08.146Z,991.72
2023-04-22T08:41:08.147Z,991.76
2023-04-22T08:42:08.141Z,991.71
2023-04-22T08:43:08.148Z,991.74
2023-04-22T08:44:08.094Z,991.68
2023-04-22T08:45:08.087Z,991.75
2023-04-22T08:46:08.191Z,991.75
2023-04-22T08:47:08.218Z,991.73
2023-04-22T08:48:08.072Z,991.69
2023-04-22T08:49:08.064Z,991.73
2023-04-22T08:50:08.050Z,991.68
2023-04-22T08:51:08.020Z,991.69
2023-04-22T08:52:08.030Z,991.63
2023-04-22T08:53:07.996Z,991.67
2023-04-22T08:54:08.044Z,991.63
2023-04-22T08:55:08.008Z,991.72
2023-04-22T08:56:07.973Z,991.66
2023-04-22T08:57:07.958Z,991.63
2023-04-22T08:58:07.936Z,991.71
2023-04-22T08:59:07.933Z,991.64
2023-04-22T09:00:07.943Z,991.66
2023-04-22T09:01:07.940Z,991.65
2023-04-22T09:02:08.072Z,991.66
2023-04-22T09:03:07.998Z,991.67
2023-04-22T09:04:07.940Z,991.66
2023-04-22T09:05:07.863Z,991.64
2023-04-22T09:06:07.925Z,991.63
2023-04-22T09:07:07.844Z,991.62
2023-04-22T09:08:07.848Z,991.55
2023-04-22T09:09:07.823Z,991.55
2023-04-22T09:10:07.832Z,991.57
2023-04-22T09:11:07.795Z,991.60
2023-04-22T09:12:07.819Z,991.45
2023-04-22T09:13:07.804Z,991.43
2023-04-22T09:14:07.790Z,991.46
2023-04-22T09:15:07.826Z,991.44
2023-04-22T09:16:07.800Z,991.43
2023-04-22T09:17:07.771Z,991.47
2023-04-22T09:18:07.725Z,991.44
2023-04-22T09:19:07.713Z,991.51
2023-04-22T09:20:07.763Z,991.54
2023-04-22T09:21:07.693Z,991.44
2023-04-22T09:22:07.695Z,991.48
2023-04-22T09:23:07.701Z,991.45
2023-04-22T09:24:07.661Z,991.46
2023-04-22T09:25:07.675Z,991.44
2023-04-22T09:26:07.632Z,991.45
2023-04-22T09:27:07.643Z,991.44
2023-04-22T09:28:07.642Z,991.47
2023-04-22T09:29:07.610Z,991.46
2023-04-22T09:30:07.599Z,991.34
2023-04-22T09:31:07.596Z,991.42
2023-04-22T09:32:07.684Z,991.38
2023-04-22T09:33:07.634Z,991.31
2023-04-22T09:34:07.575Z,991.29
2023-04-22T09:35:15.078Z,991.36
2023-04-22T09:36:07.514Z,991.29
2023-04-22T09:37:07.507Z,991.39
2023-04-22T09:38:07.503Z,991.37
2023-04-22T09:39:07.549Z,991.56
2023-04-22T09:40:07.497Z,991.45
2023-04-22T09:41:07.480Z,991.44
2023-04-22T09:42:07.462Z,991.45
2023-04-22T09:43:07.465Z,991.44
2023-04-22T09:44:07.431Z,991.46
2023-04-22T09:45:07.419Z,991.41
2023-04-22T09:46:07.466Z,991.43
2023-04-22T09:47:07.397Z,991.36
2023-04-22T09:48:07.391Z,991.42
2023-04-22T09:49:07.400Z,991.41
2023-04-22T09:50:07.427Z,991.44
2023-04-22T09:51:07.349Z,991.46
2023-04-22T09:52:07.352Z,991.36
2023-04-22T09:53:07.337Z,991.49
2023-04-22T09:54:07.319Z,991.47
2023-04-22T09:55:07.312Z,991.47
2023-04-22T09:56:07.340Z,991.47
2023-04-22T09:57:08.456Z,991.53
2023-04-22T09:58:07.299Z,991.51
2023-04-22T09:59:07.272Z,991.59
2023-04-22T10:00:07.271Z,991.51
2023-04-22T10:01:07.267Z,991.51
2023-04-22T10:02:07.303Z,991.57
2023-04-22T10:03:08.954Z,991.53
2023-04-22T10:04:07.267Z,991.52
2023-04-22T10:05:07.206Z,991.44
2023-04-22T10:06:07.214Z,991.48
2023-04-22T10:07:07.199Z,991.47
2023-04-22T10:08:07.184Z,991.47
2023-04-22T10:09:09.382Z,991.49
2023-04-22T10:10:07.156Z,991.55
2023-04-22T10:11:07.170Z,991.45
2023-04-22T10:12:07.140Z,991.48
2023-04-22T10:13:07.140Z,991.50
2023-04-22T10:14:07.109Z,991.47
2023-04-22T10:15:07.126Z,991.55
2023-04-22T10:16:07.102Z,991.45
2023-04-22T10:17:07.152Z,991.53
2023-04-22T10:18:07.080Z,991.54
2023-04-22T10:19:07.055Z,991.49
2023-04-22T10:20:07.044Z,991.55
2023-04-22T10:21:07.046Z,991.51
2023-04-22T10:22:07.017Z,991.51
2023-04-22T10:23:07.005Z,991.54
2023-04-22T10:24:07.012Z,991.52
2023-04-22T10:25:06.980Z,991.53
2023-04-22T10:26:06.973Z,991.46
2023-04-22T10:27:06.956Z,991.47
2023-04-22T10:28:06.969Z,991.49
2023-04-22T10:29:06.960Z,991.51
2023-04-22T10:30:06.934Z,991.47
2023-04-22T10:31:06.953Z,991.57
2023-04-22T10:32:08.443Z,991.51
2023-04-22T10:33:06.890Z,991.54
2023-04-22T10:34:06.886Z,991.52
2023-04-22T10:35:06.899Z,991.53
2023-04-22T10:36:06.862Z,991.50
2023-04-22T10:37:06.849Z,991.52
2023-04-22T10:38:06.843Z,991.48
2023-04-22T10:39:06.867Z,991.48
2023-04-22T10:40:06.849Z,991.49
2023-04-22T10:41:06.810Z,991.59
2023-04-22T10:42:06.817Z,991.56
2023-04-22T10:43:06.791Z,991.53
2023-04-22T10:44:06.826Z,991.59
2023-04-22T10:45:06.761Z,991.61
2023-04-22T10:46:06.791Z,991.62
2023-04-22T10:47:06.752Z,991.63
2023-04-22T10:48:06.800Z,991.67
2023-04-22T10:49:06.919Z,991.61
2023-04-22T10:50:06.731Z,991.62
2023-04-22T10:51:06.698Z,991.62
2023-04-22T10:52:06.702Z,991.63
2023-04-22T10:53:06.684Z,991.54
2023-04-22T10:54:06.680Z,991.62
2023-04-22T10:55:06.652Z,991.59
2023-04-22T10:56:06.655Z,991.57
2023-04-22T10:57:06.721Z,991.52
2023-04-22T10:58:06.631Z,991.59
2023-04-22T10:59:06.620Z,991.51
2023-04-22T11:00:06.624Z,991.53
2023-04-22T11:01:06.602Z,991.57
2023-04-22T11:02:06.721Z,991.57
2023-04-22T11:03:06.644Z,991.51
2023-04-22T11:04:06.682Z,991.59
2023-04-22T11:05:06.553Z,991.63
2023-04-22T11:06:06.561Z,991.59
2023-04-22T11:07:06.536Z,991.59
2023-04-22T11:08:06.544Z,991.58
2023-04-22T11:09:06.534Z,991.62
2023-04-22T11:10:06.502Z,991.56
2023-04-22T11:11:06.626Z,991.60
2023-04-22T11:12:06.490Z,991.58
2023-04-22T11:13:06.469Z,991.72
2023-04-22T11:14:06.460Z,991.67
2023-04-22T11:15:06.450Z,991.72
2023-04-22T11:16:06.504Z,991.60
2023-04-22T11:17:06.433Z,991.66
2023-04-22T11:18:06.414Z,991.74
2023-04-22T11:19:06.424Z,991.65
2023-04-22T11:20:06.394Z,991.68
2023-04-22T11:21:06.413Z,991.69
2023-04-22T11:22:06.375Z,991.70
2023-04-22T11:23:06.388Z,991.67
2023-04-22T11:24:06.350Z,991.65
2023-04-22T11:25:06.347Z,991.63
2023-04-22T11:26:06.366Z,991.61
2023-04-22T11:27:06.332Z,991.67
2023-04-22T11:28:06.321Z,991.60
2023-04-22T11:29:06.327Z,991.66
2023-04-22T11:30:06.275Z,991.61
2023-04-22T11:31:06.319Z,991.60
2023-04-22T11:32:06.282Z,991.66
2023-04-22T11:33:06.285Z,991.63
2023-04-22T11:34:06.239Z,991.61
2023-04-22T11:35:06.256Z,991.63
2023-04-22T11:36:06.216Z,991.63
2023-04-22T11:37:06.205Z,991.60
2023-04-22T11:38:06.194Z,991.56
2023-04-22T11:39:06.195Z,991.61
2023-04-22T11:41:06.175Z,991.56
2023-04-22T11:42:06.171Z,991.51
2023-04-22T11:43:06.154Z,991.57
2023-04-22T11:44:06.125Z,991.57
2023-04-22T11:45:06.117Z,991.55
2023-04-22T11:46:06.128Z,991.63
2023-04-22T11:47:06.096Z,991.63
2023-04-22T11:48:06.137Z,991.56
2023-04-22T11:49:06.076Z,991.61
2023-04-22T11:50:06.053Z,991.58
2023-04-22T11:51:06.065Z,991.59
2023-04-22T11:52:06.041Z,991.62
2023-04-22T11:53:06.028Z,991.58
2023-04-22T11:54:06.022Z,991.56
2023-04-22T11:55:06.019Z,991.59
2023-04-22T11:56:06.041Z,991.54
2023-04-22T11:57:06.006Z,991.62
2023-04-22T11:58:05.967Z,991.63
2023-04-22T11:59:05.965Z,991.65
2023-04-22T12:00:05.961Z,991.57
2023-04-22T12:01:05.983Z,991.63
2023-04-22T12:02:05.987Z,991.61
2023-04-22T12:03:05.996Z,991.57
2023-04-22T12:04:06.058Z,991.56
2023-04-22T12:05:05.932Z,991.60
2023-04-22T12:06:05.900Z,991.56
2023-04-22T12:07:05.887Z,991.53
2023-04-22T12:08:05.873Z,991.54
2023-04-22T12:09:05.865Z,991.52
2023-04-22T12:10:05.846Z,991.50
2023-04-22T12:11:05.893Z,991.56
2023-04-22T12:12:05.844Z,991.53
2023-04-22T12:13:05.827Z,991.52
2023-04-22T12:14:05.821Z,991.50
2023-04-22T12:15:05.801Z,991.52
2023-04-22T12:16:05.787Z,991.50
2023-04-22T12:17:05.894Z,991.53
2023-04-22T12:18:05.757Z,991.50
2023-04-22T12:19:05.760Z,991.51
2023-04-22T12:20:05.770Z,991.49
2023-04-22T12:21:05.731Z,991.51
2023-04-22T12:22:05.702Z,991.44
2023-04-22T12:23:05.700Z,991.49
2023-04-22T12:24:05.689Z,991.51
2023-04-22T12:25:05.676Z,991.48
2023-04-22T12:26:05.709Z,991.46
2023-04-22T12:27:05.698Z,991.42
2023-04-22T12:28:05.641Z,991.48
2023-04-22T12:29:05.633Z,991.37